Stations météo

réclame
Mon MeteoGroup
Hohenpeißenberg, Allemagne (10962): Température de l'air & dewpoint: 18.04.2018 10:00:00 - 24.04.2018 10:00:00 (CEST)Hohenpeißenberg, Allemagne (10962): Température de l'air 5cm & Température de l'air -5cm: 18.04.2018 10:00:00 - 24.04.2018 10:00:00 (CEST)Hohenpeißenberg, Allemagne (10962): Température de l'air -20cm & Température de l'air -100cm: 18.04.2018 10:00:00 - 24.04.2018 10:00:00 (CEST)Hohenpeißenberg, Allemagne (10962): Vitesse du vent & gusts: 18.04.2018 10:00:00 - 24.04.2018 10:00:00 (CEST)Hohenpeißenberg, Allemagne (10962): Direction du vent: 18.04.2018 10:00:00 - 24.04.2018 10:00:00 (CEST)Hohenpeißenberg, Allemagne (10962): visibility: 18.04.2018 10:00:00 - 24.04.2018 10:00:00 (CEST)Hohenpeißenberg, Allemagne (10962): Ensoleillement: 18.04.2018 10:00:00 - 24.04.2018 10:00:00 (CEST)Hohenpeißenberg, Allemagne (10962): Quantités de précipitations: 18.04.2018 10:00:00 - 24.04.2018 10:00:00 (CEST)
Date & Time tt [°C] td [°C] tt 5cm [°C] tt -5cm [°C] tt -20cm [°C] tt -100cm [°C] ff [km/h] ff [knt] fx [km/h] fx [knt] dd vv [km] sd [min] rr [mm]
24.04.2018 10:00:00 12,8 9,2 14,2 15,0 14,0 9,5 16 9 25 13 W 25 58 0,0
24.04.2018 09:00:00 11,0 9,1 11,9 13,1 14,1 9,5 14 8 26 14 SW 22 60 0,0
24.04.2018 08:00:00 9,7 8,8 9,5 12,2 14,4 9,5 18 10 31 17 WSW 25 38 0,0
24.04.2018 07:00:00 9,2 8,9 9,1 12,1 14,6 9,4 20 11 29 15 WSW 18 0 0,0
24.04.2018 06:00:00 9,2 8,9 9,0 12,4 14,9 9,4 21 11 33 18 WSW 18 0 0,0
24.04.2018 05:00:00 9,3 9,0 9,2 12,9 15,2 9,4 22 12 36 19 WSW 16 0 0,1
24.04.2018 04:00:00 9,3 9,0 9,3 13,2 15,5 9,4 25 14 40 22 WSW 16 0 0,4
24.04.2018 03:00:00 9,4 9,0 9,5 13,7 15,8 9,4 26 14 38 20 WSW 18 0 0,0
24.04.2018 02:00:00 9,6 9,3 9,8 14,2 16,2 9,4 24 13 36 20 SW 15 0 0,1
24.04.2018 01:00:00 9,6 9,4 9,8 14,8 16,5 9,3 19 10 34 18 WSW 12 0 0,0
24.04.2018 00:00:00 10,2 10,0 10,5 15,4 16,9 9,3 14 8 31 17 W 12 0 1,9
23.04.2018 23:00:00 10,2 9,9 10,5 16,2 17,2 9,3 19 11 35 19 WSW 12 0 1,6
23.04.2018 22:00:00 11,0 10,3 10,9 17,5 17,5 9,3 22 12 35 19 WSW 18 0 1,1
23.04.2018 21:00:00 13,1 7,9 13,1 18,6 17,7 9,3 16 9 27 15 WSW 30 0 0,0
23.04.2018 20:00:00 13,4 8,7 13,3 19,8 17,8 9,3 13 7 22 12 W 35 0 0,0
23.04.2018 19:00:00 14,5 8,3 14,7 21,3 17,8 9,2 10 5 20 11 WNW 35 26 0,0
23.04.2018 18:00:00 15,0 7,8 17,0 22,2 17,7 9,2 15 8 45 24 NNW 25 8 0,0
23.04.2018 17:00:00 16,1 9,3 18,6 23,8 17,4 9,2 26 14 44 24 N 25 41 0,0
23.04.2018 16:00:00 20,2 4,0 22,9 24,2 17,0 9,2 21 11 43 23 WNW 60 57 0,0
23.04.2018 15:00:00 20,0 3,7 21,9 24,1 16,4 9,2 18 10 38 20 W 60 54 0,0
23.04.2018 14:00:00 20,8 5,1 25,4 23,5 15,9 9,2 17 9 35 19 W 60 60 0,0
23.04.2018 13:00:00 19,9 4,3 23,7 22,3 15,4 9,1 17 9 31 17 W 60 59 0,0
23.04.2018 12:00:00 19,7 5,2 22,8 19,9 15,1 9,1 16 9 45 24 WSW 60 60 0,0
23.04.2018 11:00:00 18,6 4,2 21,6 18,3 14,9 9,1 25 14 40 22 WSW 65 60 0,0
23.04.2018 10:00:00 18,2 5,2 20,5 16,2 14,8 9,1 19 10 32 17 SW 65 51 0,0
23.04.2018 09:00:00 16,6 4,5 17,9 14,9 14,9 9,1 22 12 31 17 SW 60 45 0,0
23.04.2018 08:00:00 15,6 4,7 14,9 14,1 15,1 9,0 21 11 30 16 SW 60 11 0,0
23.04.2018 07:00:00 15,0 4,8 13,4 13,9 15,4 9,0 23 12 33 18 SW 40 0 0,0
23.04.2018 06:00:00 15,2 4,5 13,3 14,2 15,6 9,0 23 13 35 19 SW 40 0 0,0
23.04.2018 05:00:00 15,1 4,6 13,5 14,6 15,9 9,0 23 12 36 19 WSW 40 0 0,0
23.04.2018 04:00:00 15,2 4,8 13,8 15,0 16,2 9,0 24 13 37 20 WSW 40 0 0,0
23.04.2018 03:00:00 15,7 3,9 13,8 15,4 16,5 9,0 24 13 35 19 WSW 40 0 0,0
23.04.2018 02:00:00 16,9 4,5 14,9 15,9 16,8 8,9 22 12 29 15 SW 40 0 0,0
23.04.2018 01:00:00 17,0 4,6 14,7 16,4 17,1 8,9 21 11 26 14 SW 40 0 0,0
23.04.2018 00:00:00 17,0 3,8 14,4 17,1 17,5 8,9 15 8 22 12 SW 60 0 0,0
22.04.2018 23:00:00 17,0 3,4 14,4 17,9 17,8 8,9 12 6 17 9 SW 60 0 0,0
22.04.2018 22:00:00 19,0 2,1 16,3 18,9 18,1 8,9 13 7 21 12 W 60 0 0,0
22.04.2018 21:00:00 19,2 3,2 17,1 20,2 18,3 8,9 11 6 20 11 NW 60 0 0,0
22.04.2018 20:00:00 19,2 4,4 17,6 22,0 18,3 8,8 13 7 18 10 N 60 40 0,0
22.04.2018 19:00:00 22,2 4,2 22,3 23,9 18,1 8,8 7 4 18 10 W 60 60 0,0
22.04.2018 18:00:00 23,5 3,9 25,6 25,2 17,8 8,8 7 4 21 12 SSW 60 60 0,0
22.04.2018 17:00:00 22,6 3,2 26,9 25,9 17,4 8,8 7 4 23 13 NNW 60 60 0,0
22.04.2018 16:00:00 22,1 2,7 27,5 25,7 16,8 8,8 11 6 28 15 N 60 47 0,0
22.04.2018 15:00:00 23,4 4,8 27,1 25,4 16,2 8,8 9 5 24 13 W 60 48 0,0
22.04.2018 14:00:00 23,4 5,3 27,4 24,7 15,5 8,7 5 3 26 14 SW 60 51 0,0
22.04.2018 13:00:00 22,4 5,4 28,5 23,4 14,9 8,7 9 5 26 14 WNW 60 59 0,0
22.04.2018 12:00:00 22,7 8,3 27,4 20,9 14,4 8,7 8 4 18 10 SW 60 60 0,0
22.04.2018 11:00:00 20,5 6,7 24,5 18,2 14,2 8,7 9 5 18 10 WSW 60 60 0,0
22.04.2018 10:00:00 18,1 5,7 21,2 15,9 14,1 8,7 12 6 24 13 WSW 60 60 0,0
22.04.2018 09:00:00 16,4 5,7 17,6 14,0 14,2 8,6 16 8 26 14 SW 60 60 0,0
22.04.2018 08:00:00 15,0 5,2 13,5 13,1 14,4 8,6 18 10 27 15 WSW 60 60 0,0
22.04.2018 07:00:00 14,0 5,2 12,7 13,1 14,7 8,6 18 10 24 13 WSW 40 12 0,0
22.04.2018 06:00:00 14,2 5,3 12,2 13,4 15,0 8,6 13 7 16 9 WSW 35 0 0,0
22.04.2018 05:00:00 15,5 6,0 12,4 13,8 15,2 8,6 6 3 8 5 WSW 30 0 0,0
22.04.2018 04:00:00 15,8 6,2 12,5 14,3 15,5 8,6 8 4 15 8 SW 32 0 0,0
22.04.2018 03:00:00 15,4 6,5 12,3 14,9 15,8 8,6 11 6 15 8 SSE 32 0 0,0
22.04.2018 02:00:00 16,9 6,4 14,7 15,4 16,1 8,5 11 6 16 9 E 30 0 0,0
22.04.2018 01:00:00 17,0 6,3 14,8 15,9 16,4 8,5 12 7 21 12 ENE 30 0 0,0
22.04.2018 00:00:00 16,5 6,4 14,1 16,6 16,7 8,5 14 7 25 14 NE 30 0 0,0
21.04.2018 23:00:00 17,5 6,4 15,1 17,4 17,0 8,5 16 9 21 11 NE 30 0 0,0
21.04.2018 22:00:00 18,5 5,7 15,7 18,3 17,3 8,5 9 5 16 9 NNE 30 0 0,0
21.04.2018 21:00:00 18,8 6,5 16,6 19,5 17,5 8,5 12 7 15 8 NNE 40 3 0,0
21.04.2018 20:00:00 18,8 6,7 17,4 21,2 17,6 8,4 10 5 16 9 N 60 60 0,0
21.04.2018 19:00:00 20,7 5,8 21,0 23,0 17,5 8,4 9 5 19 10 N 80 60 0,0
21.04.2018 18:00:00 21,0 6,5 23,5 24,5 17,2 8,4 12 7 27 14 N 80 60 0,0
21.04.2018 17:00:00 21,4 6,5 25,4 25,5 16,7 8,4 14 8 26 14 N 80 60 0,0
21.04.2018 16:00:00 22,2 7,6 27,2 25,8 16,1 8,4 12 6 23 13 N 80 54 0,0
21.04.2018 15:00:00 22,4 7,6 27,5 25,5 15,4 8,4 8 4 23 12 N 70 56 0,0
21.04.2018 14:00:00 22,1 4,0 26,8 24,5 14,7 8,4 9 5 20 11 W 70 60 0,0
21.04.2018 13:00:00 23,8 7,0 29,1 22,7 14,1 8,3 8 4 18 10 SW 70 60 0,0
21.04.2018 12:00:00 21,7 6,8 26,2 20,3 13,6 8,3 7 4 16 8 WSW 80 60 0,0
21.04.2018 11:00:00 19,9 7,4 23,6 17,6 13,3 8,3 7 4 16 9 WSW 80 60 0,0
21.04.2018 10:00:00 17,9 5,5 20,3 15,4 13,2 8,3 11 6 19 10 WSW 80 60 0,0
21.04.2018 09:00:00 17,1 4,1 18,2 13,4 13,3 8,3 13 7 17 9 WSW 82 60 0,0
21.04.2018 08:00:00 16,0 3,5 14,3 12,4 13,5 8,3 12 6 20 11 W 82 60 0,0
21.04.2018 07:00:00 15,2 4,1 13,3 12,4 13,8 8,3 13 7 22 12 W 82 17 0,0
21.04.2018 06:00:00 15,3 3,8 13,2 12,7 14,0 8,2 16 9 25 13 W 82 0 0,0
21.04.2018 05:00:00 14,4 4,3 12,5 13,0 14,3 8,2 18 10 24 13 W 82 0 0,0
21.04.2018 04:00:00 16,7 6,8 13,9 13,4 14,6 8,2 11 6 14 8 W 82 0 0,0
21.04.2018 03:00:00 16,3 6,9 12,4 13,9 14,9 8,2 7 4 9 5 SSW 82 0 0,0
21.04.2018 02:00:00 17,7 6,9 13,0 14,4 15,2 8,2 7 4 11 6 SW 82 0 0,0
21.04.2018 01:00:00 16,7 7,2 13,7 15,0 15,5 8,2 10 5 12 7 WSW 82 0 0,0
21.04.2018 00:00:00 18,7 5,7 14,3 15,7 15,8 8,2 6 3 9 5 E 82 0 0,0
20.04.2018 23:00:00 19,2 5,8 14,9 16,5 16,1 8,2 7 4 8 4 NNW 82 0 0,0
20.04.2018 22:00:00 19,5 5,8 15,5 17,6 16,3 8,2 6 3 10 5 N 82 0 0,0
20.04.2018 21:00:00 19,0 6,2 16,1 18,8 16,5 8,1 10 5 13 7 N 82 7 0,0
20.04.2018 20:00:00 19,2 6,6 17,5 20,6 16,5 8,1 10 5 13 7 NNW 82 60 0,0
20.04.2018 19:00:00 20,8 5,8 21,9 22,5 16,3 8,1 9 5 15 8 N 82 60 0,0
20.04.2018 18:00:00 21,5 6,8 24,3 23,9 15,9 8,1 9 5 18 10 NNE 70 60 0,0
20.04.2018 17:00:00 21,6 7,4 25,2 24,8 15,4 8,1 10 6 19 10 N 80 60 0,0
20.04.2018 16:00:00 21,2 6,9 26,4 25,1 14,8 8,1 10 6 21 11 N 82 60 0,0
20.04.2018 15:00:00 21,0 7,0 24,9 24,6 14,0 8,1 8 4 17 9 NNE 82 60 0,0
20.04.2018 14:00:00 20,7 8,2 26,8 23,2 13,3 8,1 9 5 19 11 N 82 60 0,0
20.04.2018 13:00:00 21,1 5,3 25,8 21,2 12,6 8,1 6 4 13 7 W 80 60 0,0
20.04.2018 12:00:00 19,1 5,3 23,1 18,8 12,1 8,0 6 4 15 8 WSW 80 60 0,0
20.04.2018 11:00:00 18,3 5,6 21,9 16,0 11,8 8,0 5 3 14 8 SW 80 60 0,0
20.04.2018 10:00:00 15,8 4,0 18,7 13,6 11,7 8,0 12 6 16 9 WSW 82 60 0,0
20.04.2018 09:00:00 14,8 4,5 17,1 11,5 11,8 8,0 8 4 13 7 NNW 82 60 0,0
20.04.2018 08:00:00 13,9 3,6 11,6 10,4 12,0 8,0 5 3 11 6 N 82 60 0,0
20.04.2018 07:00:00 12,5 4,0 8,9 10,4 12,2 8,0 8 4 14 8 WNW 82 13 0,0
20.04.2018 06:00:00 12,7 3,9 9,4 10,7 12,5 8,0 8 5 13 7 WSW 82 0 0,0
20.04.2018 05:00:00 13,3 4,2 10,0 11,1 12,7 8,0 8 5 15 8 S 82 0 0,0
20.04.2018 04:00:00 14,4 4,2 11,2 11,5 13,0 8,0 12 7 17 9 SE 82 0 0,0
20.04.2018 03:00:00 13,7 4,4 10,9 12,0 13,3 8,0 15 8 19 10 SE 82 0 0,0
20.04.2018 02:00:00 14,3 4,4 10,9 12,5 13,6 7,9 11 6 16 8 SE 82 0 0,0
20.04.2018 01:00:00 15,1 4,6 12,2 13,1 13,8 7,9 11 6 19 10 ESE 82 0 0,0
20.04.2018 00:00:00 14,5 3,9 12,4 13,7 14,1 7,9 16 8 26 14 E 82 0 0,0
19.04.2018 23:00:00 15,0 3,5 13,4 14,4 14,4 7,9 17 9 31 17 E 82 0 0,0
19.04.2018 22:00:00 14,9 3,2 13,3 15,3 14,7 7,9 21 11 29 16 ENE 82 0 0,0
19.04.2018 21:00:00 15,9 4,0 13,9 16,4 14,8 7,9 19 10 29 16 NE 82 0 0,0
19.04.2018 20:00:00 16,7 5,4 15,3 18,1 14,9 7,9 18 10 27 15 NE 82 58 0,0
19.04.2018 19:00:00 18,4 5,2 18,5 19,8 14,7 7,9 16 8 23 12 NE 82 60 0,0
19.04.2018 18:00:00 19,6 4,0 20,9 21,4 14,4 7,9 14 8 29 16 NE 82 60 0,0
19.04.2018 17:00:00 20,1 3,5 22,9 22,4 14,0 7,9 16 8 26 14 NE 82 60 0,0
19.04.2018 16:00:00 20,3 4,3 23,5 22,6 13,4 7,9 16 8 27 15 NE 82 59 0,0
19.04.2018 15:00:00 19,8 3,8 22,9 22,4 12,7 7,9 14 8 25 13 ENE 82 60 0,0
19.04.2018 14:00:00 19,2 4,4 23,4 21,1 12,0 7,9 12 7 24 13 ENE 82 60 0,0
19.04.2018 13:00:00 18,1 5,5 22,3 19,5 11,4 7,8 14 8 26 14 ENE 82 60 0,0
19.04.2018 12:00:00 16,1 3,8 20,4 17,4 10,9 7,8 9 5 18 10 ENE 82 60 0,0
19.04.2018 11:00:00 16,1 2,8 19,9 14,7 10,6 7,8 8 4 16 9 E 82 60 0,0
19.04.2018 10:00:00 15,3 2,4 18,3 12,1 10,4 7,8 8 4 24 13 ESE 82 60 0,0
19.04.2018 09:00:00 13,0 0,9 14,0 10,1 10,5 7,8 11 6 23 12 E 82 60 0,0
19.04.2018 08:00:00 12,1 1,1 10,5 9,0 10,7 7,8 16 8 28 15 ESE 82 60 0,0
19.04.2018 07:00:00 11,3 1,5 9,9 9,0 10,9 7,8 21 11 30 16 ESE 82 14 0,0
19.04.2018 06:00:00 11,1 1,5 9,0 9,3 11,1 7,8 16 9 28 15 ESE 82 0 0,0
19.04.2018 05:00:00 12,0 1,8 9,7 9,6 11,4 7,8 16 9 27 15 ESE 82 0 0,0
19.04.2018 04:00:00 11,8 2,3 9,7 9,9 11,6 7,8 16 9 22 12 ESE 82 0 0,0
19.04.2018 03:00:00 11,8 2,5 9,7 10,3 11,9 7,8 15 8 25 14 ESE 82 0 0,0
19.04.2018 02:00:00 11,2 1,7 9,7 10,7 12,1 7,8 19 10 35 19 E 82 0 0,0
19.04.2018 01:00:00 11,4 2,1 10,1 11,2 12,4 7,8 21 11 32 17 E 50 0 0,0
19.04.2018 00:00:00 12,1 2,4 10,7 11,8 12,7 7,8 22 12 36 20 ENE 30 0 0,0
18.04.2018 23:00:00 12,9 2,6 11,4 12,5 13,0 7,8 22 12 35 19 ENE 82 0 0,0
18.04.2018 22:00:00 13,0 3,8 11,6 13,3 13,2 7,7 24 13 38 20 ENE 82 0 0,0
18.04.2018 21:00:00 13,9 4,2 12,4 14,4 13,4 7,7 22 12 35 19 NE 82 2 0,0
18.04.2018 20:00:00 14,7 4,7 13,6 15,9 13,4 7,7 21 12 34 18 NE 82 60 0,0
18.04.2018 19:00:00 16,0 3,9 16,3 17,6 13,3 7,7 18 10 33 18 NE 82 60 0,0
18.04.2018 18:00:00 17,1 2,9 18,7 19,0 13,0 7,7 19 10 32 18 NE 82 60 0,0
18.04.2018 17:00:00 17,5 2,3 20,1 19,8 12,6 7,7 19 11 32 17 NE 82 60 0,0
18.04.2018 16:00:00 17,6 2,8 20,9 19,9 12,1 7,7 19 11 35 19 NE 82 60 0,0
18.04.2018 15:00:00 17,8 4,1 20,9 19,4 11,5 7,7 18 10 36 20 NE 70 60 0,0
18.04.2018 14:00:00 16,6 2,6 20,0 18,5 11,0 7,7 19 10 35 19 NE 70 60 0,0
18.04.2018 13:00:00 16,4 4,6 20,1 16,9 10,5 7,7 16 9 31 17 ENE 50 60 0,0
18.04.2018 12:00:00 15,3 5,4 18,1 14,9 10,1 7,7 17 9 28 15 ENE 50 60 0,0
18.04.2018 11:00:00 13,6 5,9 16,5 12,8 9,8 7,7 17 9 27 14 ENE 50 60 0,0
18.04.2018 10:00:00 12,7 4,4 14,4 10,9 9,7 7,7 13 7 25 13 E 50 60 0,0

tt = Température de l'air
td = dewpoint
tt 5cm = Température de l'air 5cm
tt -5cm = Température de l'air -5cm
tt -20cm = Température de l'air -20cm
tt -100cm = Température de l'air -100cm
ff = Vitesse du vent
fx = gusts
dd = Direction du vent
vv = visibility
sd = Ensoleillement
rr = Quantités de précipitations

stations d'obs. à proximité